sensor_id;sensor_type;location;lat;lon;timestamp;pressure;altitude;pressure_sealevel;temperature;humidity
41264;BME280;26998;48.714;9.414;2023-01-01T00:00:38;99093.38;;;6.41;100.00
41264;BME280;26998;48.714;9.414;2023-01-01T00:03:04;99094.38;;;6.40;100.00
41264;BME280;26998;48.714;9.414;2023-01-01T00:05:31;99082.94;;;6.39;100.00
41264;BME280;26998;48.714;9.414;2023-01-01T00:07:57;99083.91;;;6.38;100.00
41264;BME280;26998;48.714;9.414;2023-01-01T00:10:30;99084.44;;;6.34;100.00
41264;BME280;26998;48.714;9.414;2023-01-01T00:12:57;99088.56;;;6.28;100.00
41264;BME280;26998;48.714;9.414;2023-01-01T00:15:25;99094.06;;;6.27;100.00
41264;BME280;26998;48.714;9.414;2023-01-01T00:17:52;99094.19;;;6.25;100.00
41264;BME280;26998;48.714;9.414;2023-01-01T00:20:18;99106.97;;;6.21;100.00
41264;BME280;26998;48.714;9.414;2023-01-01T00:22:45;99104.16;;;6.23;100.00
41264;BME280;26998;48.714;9.414;2023-01-01T00:25:21;99106.66;;;6.24;100.00
41264;BME280;26998;48.714;9.414;2023-01-01T00:27:48;99103.16;;;6.24;100.00
41264;BME280;26998;48.714;9.414;2023-01-01T00:30:15;99106.47;;;6.18;100.00
41264;BME280;26998;48.714;9.414;2023-01-01T00:32:41;99110.28;;;6.15;100.00
41264;BME280;26998;48.714;9.414;2023-01-01T00:35:20;99110.47;;;6.14;100.00
41264;BME280;26998;48.714;9.414;2023-01-01T00:37:46;99110.25;;;6.07;100.00
41264;BME280;26998;48.714;9.414;2023-01-01T00:40:13;99117.06;;;6.10;100.00
41264;BME280;26998;48.714;9.414;2023-01-01T00:42:39;99113.91;;;6.06;100.00
41264;BME280;26998;48.714;9.414;2023-01-01T00:45:06;99107.78;;;6.06;100.00
41264;BME280;26998;48.714;9.414;2023-01-01T00:47:33;99093.69;;;6.05;100.00
41264;BME280;26998;48.714;9.414;2023-01-01T00:49:59;99098.50;;;6.01;100.00
41264;BME280;26998;48.714;9.414;2023-01-01T00:52:25;99091.50;;;6.00;100.00
41264;BME280;26998;48.714;9.414;2023-01-01T00:54:52;99081.06;;;5.99;100.00
41264;BME280;26998;48.714;9.414;2023-01-01T00:57:18;99089.50;;;5.94;100.00
41264;BME280;26998;48.714;9.414;2023-01-01T00:59:45;99082.84;;;5.90;100.00
41264;BME280;26998;48.714;9.414;2023-01-01T01:02:11;99082.34;;;5.87;100.00
41264;BME280;26998;48.714;9.414;2023-01-01T01:04:38;99078.38;;;5.83;100.00
41264;BME280;26998;48.714;9.414;2023-01-01T01:07:04;99080.47;;;5.79;100.00
41264;BME280;26998;48.714;9.414;2023-01-01T01:09:31;99071.06;;;5.76;100.00
41264;BME280;26998;48.714;9.414;2023-01-01T01:11:57;99073.84;;;5.75;100.00
41264;BME280;26998;48.714;9.414;2023-01-01T01:14:44;99071.84;;;5.69;100.00
41264;BME280;26998;48.714;9.414;2023-01-01T01:17:11;99077.66;;;5.64;100.00
41264;BME280;26998;48.714;9.414;2023-01-01T01:19:37;99071.34;;;5.65;100.00
41264;BME280;26998;48.714;9.414;2023-01-01T01:22:04;99068.34;;;5.60;100.00
41264;BME280;26998;48.714;9.414;2023-01-01T01:24:30;99076.47;;;5.59;100.00
41264;BME280;26998;48.714;9.414;2023-01-01T01:26:57;99059.22;;;5.54;100.00
41264;BME280;26998;48.714;9.414;2023-01-01T01:29:23;99073.13;;;5.56;100.00
41264;BME280;26998;48.714;9.414;2023-01-01T01:31:50;99075.78;;;5.56;100.00
41264;BME280;26998;48.714;9.414;2023-01-01T01:34:16;99072.31;;;5.56;100.00
41264;BME280;26998;48.714;9.414;2023-01-01T01:36:49;99070.47;;;5.56;100.00
41264;BME280;26998;48.714;9.414;2023-01-01T01:39:15;99071.47;;;5.55;100.00
41264;BME280;26998;48.714;9.414;2023-01-01T01:41:42;99075.13;;;5.54;100.00
41264;BME280;26998;48.714;9.414;2023-01-01T01:47:58;99062.88;;;5.62;100.00
41264;BME280;26998;48.714;9.414;2023-01-01T01:50:27;99057.06;;;5.58;100.00
41264;BME280;26998;48.714;9.414;2023-01-01T01:53:08;99051.91;;;5.56;100.00
41264;BME280;26998;48.714;9.414;2023-01-01T01:55:38;99045.09;;;5.54;100.00
41264;BME280;26998;48.714;9.414;2023-01-01T01:58:08;99042.78;;;5.51;100.00
41264;BME280;26998;48.714;9.414;2023-01-01T02:00:36;99039.81;;;5.46;100.00
41264;BME280;26998;48.714;9.414;2023-01-01T02:03:09;99046.06;;;5.45;100.00
41264;BME280;26998;48.714;9.414;2023-01-01T02:05:39;99041.09;;;5.42;100.00
41264;BME280;26998;48.714;9.414;2023-01-01T02:08:07;99050.03;;;5.41;100.00
41264;BME280;26998;48.714;9.414;2023-01-01T02:10:34;99058.16;;;5.39;100.00
41264;BME280;26998;48.714;9.414;2023-01-01T02:13:01;99058.31;;;5.38;100.00
41264;BME280;26998;48.714;9.414;2023-01-01T02:15:30;99060.59;;;5.32;100.00
41264;BME280;26998;48.714;9.414;2023-01-01T02:18:12;99065.56;;;5.27;100.00
41264;BME280;26998;48.714;9.414;2023-01-01T02:20:48;99053.97;;;5.28;100.00
41264;BME280;26998;48.714;9.414;2023-01-01T02:23:27;99056.78;;;5.27;100.00
41264;BME280;26998;48.714;9.414;2023-01-01T02:26:15;99060.41;;;5.26;100.00
41264;BME280;26998;48.714;9.414;2023-01-01T02:29:00;99057.25;;;5.22;100.00
41264;BME280;26998;48.714;9.414;2023-01-01T02:31:31;99065.88;;;5.24;100.00
41264;BME280;26998;48.714;9.414;2023-01-01T02:34:04;99059.72;;;5.16;100.00
41264;BME280;26998;48.714;9.414;2023-01-01T02:36:34;99062.03;;;5.19;100.00
41264;BME280;26998;48.714;9.414;2023-01-01T02:39:05;99071.13;;;5.16;100.00
41264;BME280;26998;48.714;9.414;2023-01-01T02:41:38;99073.78;;;5.16;100.00
41264;BME280;26998;48.714;9.414;2023-01-01T02:44:05;99076.44;;;5.16;100.00
41264;BME280;26998;48.714;9.414;2023-01-01T02:46:32;99064.81;;;5.09;100.00
41264;BME280;26998;48.714;9.414;2023-01-01T02:49:00;99067.28;;;5.02;100.00
41264;BME280;26998;48.714;9.414;2023-01-01T02:52:12;99063.25;;;4.98;100.00
41264;BME280;26998;48.714;9.414;2023-01-01T02:54:43;99057.81;;;5.00;100.00
41264;BME280;26998;48.714;9.414;2023-01-01T02:57:35;99067.41;;;5.01;100.00
41264;BME280;26998;48.714;9.414;2023-01-01T03:00:06;99064.63;;;5.02;100.00
41264;BME280;26998;48.714;9.414;2023-01-01T03:02:49;99064.63;;;5.02;100.00
41264;BME280;26998;48.714;9.414;2023-01-01T03:08:07;99069.53;;;4.97;100.00
41264;BME280;26998;48.714;9.414;2023-01-01T03:10:45;99079.31;;;4.97;100.00
41264;BME280;26998;48.714;9.414;2023-01-01T03:13:31;99092.03;;;4.93;100.00
41264;BME280;26998;48.714;9.414;2023-01-01T03:16:18;99075.47;;;4.91;100.00
41264;BME280;26998;48.714;9.414;2023-01-01T03:18:57;99079.78;;;4.92;100.00
41264;BME280;26998;48.714;9.414;2023-01-01T03:21:27;99094.22;;;4.98;100.00
41264;BME280;26998;48.714;9.414;2023-01-01T03:23:54;99085.44;;;4.97;100.00
41264;BME280;26998;48.714;9.414;2023-01-01T03:26:21;99083.94;;;4.95;100.00
41264;BME280;26998;48.714;9.414;2023-01-01T03:28:55;99086.25;;;4.90;100.00
41264;BME280;26998;48.714;9.414;2023-01-01T03:31:24;99087.72;;;4.92;100.00
41264;BME280;26998;48.714;9.414;2023-01-01T03:33:58;99100.66;;;4.95;100.00
41264;BME280;26998;48.714;9.414;2023-01-01T03:36:33;99092.38;;;4.98;100.00
41264;BME280;26998;48.714;9.414;2023-01-01T03:39:09;99089.28;;;5.03;100.00
41264;BME280;26998;48.714;9.414;2023-01-01T03:41:45;99093.59;;;5.04;100.00
41264;BME280;26998;48.714;9.414;2023-01-01T03:44:35;99108.91;;;5.18;100.00
41264;BME280;26998;48.714;9.414;2023-01-01T03:47:04;99113.69;;;5.15;100.00
41264;BME280;26998;48.714;9.414;2023-01-01T03:49:31;99112.03;;;5.14;100.00
41264;BME280;26998;48.714;9.414;2023-01-01T03:52:19;99126.56;;;5.09;100.00
41264;BME280;26998;48.714;9.414;2023-01-01T03:55:17;99130.66;;;5.04;100.00
41264;BME280;26998;48.714;9.414;2023-01-01T03:57:55;99139.09;;;4.99;100.00
41264;BME280;26998;48.714;9.414;2023-01-01T04:00:24;99125.38;;;5.04;100.00
41264;BME280;26998;48.714;9.414;2023-01-01T04:03:07;99132.03;;;5.08;100.00
41264;BME280;26998;48.714;9.414;2023-01-01T04:05:38;99135.22;;;5.12;100.00
41264;BME280;26998;48.714;9.414;2023-01-01T04:08:06;99132.91;;;5.17;100.00
41264;BME280;26998;48.714;9.414;2023-01-01T04:10:35;99128.28;;;5.19;100.00
41264;BME280;26998;48.714;9.414;2023-01-01T04:13:05;99135.25;;;5.20;100.00
41264;BME280;26998;48.714;9.414;2023-01-01T04:15:32;99146.53;;;5.22;100.00
41264;BME280;26998;48.714;9.414;2023-01-01T04:17:59;99145.00;;;5.19;100.00
41264;BME280;26998;48.714;9.414;2023-01-01T04:20:25;99140.53;;;5.20;100.00
41264;BME280;26998;48.714;9.414;2023-01-01T04:22:55;99138.50;;;5.14;100.00
41264;BME280;26998;48.714;9.414;2023-01-01T04:25:22;99146.91;;;5.27;100.00
41264;BME280;26998;48.714;9.414;2023-01-01T04:27:48;99146.00;;;5.18;100.00
41264;BME280;26998;48.714;9.414;2023-01-01T04:30:15;99152.94;;;5.11;100.00
41264;BME280;26998;48.714;9.414;2023-01-01T04:32:42;99160.13;;;5.01;100.00
41264;BME280;26998;48.714;9.414;2023-01-01T04:35:10;99162.25;;;4.97;100.00
41264;BME280;26998;48.714;9.414;2023-01-01T04:37:38;99162.22;;;4.89;100.00
41264;BME280;26998;48.714;9.414;2023-01-01T04:40:05;99171.75;;;4.82;100.00
41264;BME280;26998;48.714;9.414;2023-01-01T04:42:32;99180.28;;;4.76;100.00
41264;BME280;26998;48.714;9.414;2023-01-01T04:44:59;99184.38;;;4.70;100.00
41264;BME280;26998;48.714;9.414;2023-01-01T04:47:25;99188.31;;;4.66;100.00
41264;BME280;26998;48.714;9.414;2023-01-01T04:49:52;99194.09;;;4.61;100.00
41264;BME280;26998;48.714;9.414;2023-01-01T04:52:20;99200.22;;;4.62;100.00
41264;BME280;26998;48.714;9.414;2023-01-01T04:54:46;99202.31;;;4.58;100.00
41264;BME280;26998;48.714;9.414;2023-01-01T04:57:13;99205.28;;;4.55;100.00
41264;BME280;26998;48.714;9.414;2023-01-01T04:59:40;99214.47;;;4.51;100.00
41264;BME280;26998;48.714;9.414;2023-01-01T05:02:06;99225.84;;;4.44;100.00
41264;BME280;26998;48.714;9.414;2023-01-01T05:04:33;99214.56;;;4.42;100.00
41264;BME280;26998;48.714;9.414;2023-01-01T05:06:59;99228.38;;;4.35;100.00
41264;BME280;26998;48.714;9.414;2023-01-01T05:09:26;99235.66;;;4.33;100.00
41264;BME280;26998;48.714;9.414;2023-01-01T05:11:53;99248.31;;;4.30;100.00
41264;BME280;26998;48.714;9.414;2023-01-01T05:14:20;99243.03;;;4.30;100.00
41264;BME280;26998;48.714;9.414;2023-01-01T05:16:46;99257.41;;;4.27;100.00
41264;BME280;26998;48.714;9.414;2023-01-01T05:19:13;99247.66;;;4.28;100.00
41264;BME280;26998;48.714;9.414;2023-01-01T05:21:40;99253.78;;;4.28;100.00
41264;BME280;26998;48.714;9.414;2023-01-01T05:24:08;99257.56;;;4.26;100.00
41264;BME280;26998;48.714;9.414;2023-01-01T05:26:37;99256.19;;;4.22;100.00
41264;BME280;26998;48.714;9.414;2023-01-01T05:29:05;99261.25;;;4.15;100.00
41264;BME280;26998;48.714;9.414;2023-01-01T05:31:41;99266.19;;;4.00;100.00
41264;BME280;26998;48.714;9.414;2023-01-01T05:34:07;99270.97;;;3.87;100.00
41264;BME280;26998;48.714;9.414;2023-01-01T05:36:34;99273.78;;;3.76;100.00
41264;BME280;26998;48.714;9.414;2023-01-01T05:39:01;99267.13;;;3.72;100.00
41264;BME280;26998;48.714;9.414;2023-01-01T05:41:27;99257.78;;;3.67;100.00
41264;BME280;26998;48.714;9.414;2023-01-01T05:43:54;99256.00;;;3.68;100.00
41264;BME280;26998;48.714;9.414;2023-01-01T05:46:22;99260.16;;;3.70;100.00
41264;BME280;26998;48.714;9.414;2023-01-01T05:48:50;99244.44;;;3.69;100.00
41264;BME280;26998;48.714;9.414;2023-01-01T05:51:20;99244.28;;;3.70;100.00
41264;BME280;26998;48.714;9.414;2023-01-01T05:53:47;99242.78;;;3.68;100.00
41264;BME280;26998;48.714;9.414;2023-01-01T05:56:14;99239.56;;;3.64;100.00
41264;BME280;26998;48.714;9.414;2023-01-01T05:58:42;99238.22;;;3.60;100.00
41264;BME280;26998;48.714;9.414;2023-01-01T06:01:13;99246.41;;;3.57;100.00
41264;BME280;26998;48.714;9.414;2023-01-01T06:03:41;99238.50;;;3.57;100.00
41264;BME280;26998;48.714;9.414;2023-01-01T06:06:13;99232.09;;;3.60;100.00
41264;BME280;26998;48.714;9.414;2023-01-01T06:08:40;99236.94;;;3.64;100.00
41264;BME280;26998;48.714;9.414;2023-01-01T06:11:09;99228.19;;;3.64;100.00
41264;BME280;26998;48.714;9.414;2023-01-01T06:13:36;99231.66;;;3.64;100.00
41264;BME280;26998;48.714;9.414;2023-01-01T06:16:03;99214.28;;;3.62;100.00
41264;BME280;26998;48.714;9.414;2023-01-01T06:18:32;99211.09;;;3.58;100.00
41264;BME280;26998;48.714;9.414;2023-01-01T06:21:07;99215.53;;;3.58;100.00
41264;BME280;26998;48.714;9.414;2023-01-01T06:23:34;99210.00;;;3.51;100.00
41264;BME280;26998;48.714;9.414;2023-01-01T06:28:38;99207.09;;;3.44;100.00
41264;BME280;26998;48.714;9.414;2023-01-01T06:31:07;99197.38;;;3.45;100.00
41264;BME280;26998;48.714;9.414;2023-01-01T06:33:33;99200.16;;;3.43;100.00
41264;BME280;26998;48.714;9.414;2023-01-01T06:36:06;99201.69;;;3.46;100.00
41264;BME280;26998;48.714;9.414;2023-01-01T06:38:34;99202.34;;;3.48;100.00
41264;BME280;26998;48.714;9.414;2023-01-01T06:41:04;99201.53;;;3.47;100.00
41264;BME280;26998;48.714;9.414;2023-01-01T06:43:32;99199.72;;;3.48;100.00
41264;BME280;26998;48.714;9.414;2023-01-01T06:46:03;99201.25;;;3.51;100.00
41264;BME280;26998;48.714;9.414;2023-01-01T06:48:33;99193.75;;;3.46;100.00
41264;BME280;26998;48.714;9.414;2023-01-01T06:51:14;99204.19;;;3.47;100.00
41264;BME280;26998;48.714;9.414;2023-01-01T06:53:41;99188.78;;;3.43;100.00
41264;BME280;26998;48.714;9.414;2023-01-01T06:56:08;99189.34;;;3.37;100.00
41264;BME280;26998;48.714;9.414;2023-01-01T06:58:35;99197.94;;;3.39;100.00
41264;BME280;26998;48.714;9.414;2023-01-01T07:01:11;99200.16;;;3.43;100.00
41264;BME280;26998;48.714;9.414;2023-01-01T07:03:38;99190.44;;;3.44;100.00
41264;BME280;26998;48.714;9.414;2023-01-01T07:06:06;99195.28;;;3.39;100.00
41264;BME280;26998;48.714;9.414;2023-01-01T07:08:34;99195.28;;;3.39;100.00
41264;BME280;26998;48.714;9.414;2023-01-01T07:11:01;99200.03;;;3.35;100.00
41264;BME280;26998;48.714;9.414;2023-01-01T07:13:28;99199.63;;;3.40;100.00
41264;BME280;26998;48.714;9.414;2023-01-01T07:15:55;99198.88;;;3.47;100.00
41264;BME280;26998;48.714;9.414;2023-01-01T07:18:23;99194.31;;;3.50;100.00
41264;BME280;26998;48.714;9.414;2023-01-01T07:20:53;99196.94;;;3.50;100.00
41264;BME280;26998;48.714;9.414;2023-01-01T07:23:20;99197.78;;;3.50;100.00
41264;BME280;26998;48.714;9.414;2023-01-01T07:25:51;99197.63;;;3.52;100.00
41264;BME280;26998;48.714;9.414;2023-01-01T07:28:18;99205.13;;;3.56;100.00
41264;BME280;26998;48.714;9.414;2023-01-01T07:30:45;99199.94;;;3.64;100.00
41264;BME280;26998;48.714;9.414;2023-01-01T07:33:16;99205.66;;;3.60;100.00
41264;BME280;26998;48.714;9.414;2023-01-01T07:35:43;99208.59;;;3.57;100.00
41264;BME280;26998;48.714;9.414;2023-01-01T07:38:11;99214.03;;;3.55;100.00
41264;BME280;26998;48.714;9.414;2023-01-01T07:40:37;99210.53;;;3.55;100.00
41264;BME280;26998;48.714;9.414;2023-01-01T07:43:04;99218.34;;;3.56;100.00
41264;BME280;26998;48.714;9.414;2023-01-01T07:45:31;99220.53;;;3.61;100.00
41264;BME280;26998;48.714;9.414;2023-01-01T07:47:59;99224.00;;;3.61;100.00
41264;BME280;26998;48.714;9.414;2023-01-01T07:50:27;99226.97;;;3.58;100.00
41264;BME280;26998;48.714;9.414;2023-01-01T07:52:54;99239.72;;;3.63;100.00
41264;BME280;26998;48.714;9.414;2023-01-01T07:55:21;99250.03;;;3.66;100.00
41264;BME280;26998;48.714;9.414;2023-01-01T07:57:48;99250.31;;;3.63;100.00
41264;BME280;26998;48.714;9.414;2023-01-01T08:00:17;99254.16;;;3.78;100.00
41264;BME280;26998;48.714;9.414;2023-01-01T08:02:44;99258.69;;;3.86;100.00
41264;BME280;26998;48.714;9.414;2023-01-01T08:05:11;99261.50;;;3.84;100.00
41264;BME280;26998;48.714;9.414;2023-01-01T08:07:37;99267.63;;;3.85;100.00
41264;BME280;26998;48.714;9.414;2023-01-01T08:10:05;99270.69;;;3.90;100.00
41264;BME280;26998;48.714;9.414;2023-01-01T08:12:33;99274.28;;;3.89;100.00
41264;BME280;26998;48.714;9.414;2023-01-01T08:14:59;99281.50;;;3.97;100.00
41264;BME280;26998;48.714;9.414;2023-01-01T08:17:26;99283.69;;;4.01;100.00
41264;BME280;26998;48.714;9.414;2023-01-01T08:19:52;99292.63;;;4.00;100.00
41264;BME280;26998;48.714;9.414;2023-01-01T08:22:19;99315.16;;;4.04;100.00
41264;BME280;26998;48.714;9.414;2023-01-01T08:24:45;99319.59;;;4.04;100.00
41264;BME280;26998;48.714;9.414;2023-01-01T08:27:13;99322.78;;;4.07;100.00
41264;BME280;26998;48.714;9.414;2023-01-01T08:29:41;99325.16;;;4.10;100.00
41264;BME280;26998;48.714;9.414;2023-01-01T08:32:07;99318.91;;;4.11;100.00
41264;BME280;26998;48.714;9.414;2023-01-01T08:34:34;99321.50;;;4.21;100.00
41264;BME280;26998;48.714;9.414;2023-01-01T08:37:00;99328.16;;;4.25;100.00
41264;BME280;26998;48.714;9.414;2023-01-01T08:39:27;99335.25;;;4.25;100.00
41264;BME280;26998;48.714;9.414;2023-01-01T08:41:54;99332.63;;;4.25;100.00
41264;BME280;26998;48.714;9.414;2023-01-01T08:44:20;99324.22;;;4.29;100.00
41264;BME280;26998;48.714;9.414;2023-01-01T08:46:46;99335.06;;;4.36;100.00
41264;BME280;26998;48.714;9.414;2023-01-01T08:49:13;99338.94;;;4.42;100.00
41264;BME280;26998;48.714;9.414;2023-01-01T08:51:39;99333.09;;;4.38;100.00
41264;BME280;26998;48.714;9.414;2023-01-01T08:54:06;99349.34;;;4.53;100.00
41264;BME280;26998;48.714;9.414;2023-01-01T08:56:33;99351.63;;;4.66;100.00
41264;BME280;26998;48.714;9.414;2023-01-01T08:58:59;99356.44;;;4.80;100.00
41264;BME280;26998;48.714;9.414;2023-01-01T09:01:29;99367.03;;;4.80;100.00
41264;BME280;26998;48.714;9.414;2023-01-01T09:03:56;99373.81;;;4.82;100.00
41264;BME280;26998;48.714;9.414;2023-01-01T09:06:23;99383.94;;;4.97;100.00
41264;BME280;26998;48.714;9.414;2023-01-01T09:08:49;99390.63;;;5.19;100.00
41264;BME280;26998;48.714;9.414;2023-01-01T09:11:25;99400.44;;;5.26;100.00
41264;BME280;26998;48.714;9.414;2023-01-01T09:13:52;99409.25;;;5.27;100.00
41264;BME280;26998;48.714;9.414;2023-01-01T09:16:20;99427.81;;;5.27;100.00
41264;BME280;26998;48.714;9.414;2023-01-01T09:18:46;99423.56;;;5.34;100.00
41264;BME280;26998;48.714;9.414;2023-01-01T09:21:13;99421.81;;;5.61;100.00
41264;BME280;26998;48.714;9.414;2023-01-01T09:23:40;99424.09;;;5.55;100.00
41264;BME280;26998;48.714;9.414;2023-01-01T09:26:08;99430.16;;;5.66;100.00
41264;BME280;26998;48.714;9.414;2023-01-01T09:28:36;99448.41;;;5.87;100.00
41264;BME280;26998;48.714;9.414;2023-01-01T09:31:03;99460.97;;;5.85;100.00
41264;BME280;26998;48.714;9.414;2023-01-01T09:33:29;99474.56;;;5.82;100.00
41264;BME280;26998;48.714;9.414;2023-01-01T09:36:13;99496.69;;;5.90;100.00
41264;BME280;26998;48.714;9.414;2023-01-01T09:38:40;99495.31;;;6.04;100.00
41264;BME280;26998;48.714;9.414;2023-01-01T09:41:16;99505.88;;;6.14;100.00
41264;BME280;26998;48.714;9.414;2023-01-01T09:44:34;99528.00;;;6.22;100.00
41264;BME280;26998;48.714;9.414;2023-01-01T09:46:52;99548.97;;;6.08;100.00
41264;BME280;26998;48.714;9.414;2023-01-01T09:49:39;99548.31;;;6.32;100.00
41264;BME280;26998;48.714;9.414;2023-01-01T09:52:10;99564.63;;;6.37;100.00
41264;BME280;26998;48.714;9.414;2023-01-01T09:54:56;99576.47;;;6.42;100.00
41264;BME280;26998;48.714;9.414;2023-01-01T09:57:28;99598.00;;;6.39;100.00
41264;BME280;26998;48.714;9.414;2023-01-01T09:59:58;99603.81;;;6.61;100.00
41264;BME280;26998;48.714;9.414;2023-01-01T10:08:00;99704.97;;;7.29;100.00
41264;BME280;26998;48.714;9.414;2023-01-01T10:10:53;99757.00;;;7.58;100.00
41264;BME280;26998;48.714;9.414;2023-01-01T10:13:33;99804.19;;;7.74;100.00
41264;BME280;26998;48.714;9.414;2023-01-01T10:16:09;99820.34;;;7.80;100.00
41264;BME280;26998;48.714;9.414;2023-01-01T10:18:37;99837.53;;;7.86;100.00
41264;BME280;26998;48.714;9.414;2023-01-01T10:21:13;99852.06;;;8.26;100.00
41264;BME280;26998;48.714;9.414;2023-01-01T10:23:53;99863.56;;;8.34;100.00
41264;BME280;26998;48.714;9.414;2023-01-01T10:26:22;99869.53;;;8.28;100.00
41264;BME280;26998;48.714;9.414;2023-01-01T10:31:55;99880.84;;;8.99;100.00
41264;BME280;26998;48.714;9.414;2023-01-01T10:34:23;99869.47;;;8.72;100.00
41264;BME280;26998;48.714;9.414;2023-01-01T10:36:52;99874.44;;;8.67;100.00
41264;BME280;26998;48.714;9.414;2023-01-01T10:39:19;99887.25;;;8.64;100.00
41264;BME280;26998;48.714;9.414;2023-01-01T10:41:46;99887.47;;;8.87;100.00
41264;BME280;26998;48.714;9.414;2023-01-01T10:44:16;99883.38;;;9.09;100.00
41264;BME280;26998;48.714;9.414;2023-01-01T10:46:48;99872.94;;;9.32;100.00
41264;BME280;26998;48.714;9.414;2023-01-01T10:49:15;99869.09;;;9.67;100.00
41264;BME280;26998;48.714;9.414;2023-01-01T10:51:52;99853.56;;;9.87;100.00
41264;BME280;26998;48.714;9.414;2023-01-01T10:54:30;99832.91;;;9.73;100.00
41264;BME280;26998;48.714;9.414;2023-01-01T10:56:58;99847.53;;;10.01;100.00
41264;BME280;26998;48.714;9.414;2023-01-01T10:59:38;99842.81;;;10.28;100.00
41264;BME280;26998;48.714;9.414;2023-01-01T11:02:26;99912.75;;;10.48;100.00
41264;BME280;26998;48.714;9.414;2023-01-01T11:05:19;99879.19;;;10.45;100.00
41264;BME280;26998;48.714;9.414;2023-01-01T11:07:48;99882.59;;;11.01;100.00
41264;BME280;26998;48.714;9.414;2023-01-01T11:10:19;99827.03;;;11.35;100.00
41264;BME280;26998;48.714;9.414;2023-01-01T11:12:47;99762.72;;;11.28;100.00
41264;BME280;26998;48.714;9.414;2023-01-01T11:15:37;99739.34;;;11.74;100.00
41264;BME280;26998;48.714;9.414;2023-01-01T11:20:52;99655.13;;;12.28;100.00
41264;BME280;26998;48.714;9.414;2023-01-01T11:23:30;99616.66;;;12.36;100.00
41264;BME280;26998;48.714;9.414;2023-01-01T11:28:27;99607.84;;;12.42;100.00
41264;BME280;26998;48.714;9.414;2023-01-01T11:31:13;99616.53;;;12.65;100.00
41264;BME280;26998;48.714;9.414;2023-01-01T11:33:50;99578.56;;;12.90;100.00
41264;BME280;26998;48.714;9.414;2023-01-01T11:36:29;99564.94;;;12.91;100.00
41264;BME280;26998;48.714;9.414;2023-01-01T11:41:52;99555.94;;;12.71;100.00
41264;BME280;26998;48.714;9.414;2023-01-01T11:47:00;99570.66;;;12.82;100.00
41264;BME280;26998;48.714;9.414;2023-01-01T11:49:29;99575.81;;;12.83;100.00
41264;BME280;26998;48.714;9.414;2023-01-01T11:51:57;99565.66;;;13.35;100.00
41264;BME280;26998;48.714;9.414;2023-01-01T11:54:31;99516.94;;;13.38;100.00
41264;BME280;26998;48.714;9.414;2023-01-01T11:57:08;99507.13;;;13.72;100.00
41264;BME280;26998;48.714;9.414;2023-01-01T11:59:46;99474.78;;;13.38;100.00
41264;BME280;26998;48.714;9.414;2023-01-01T12:02:25;99489.13;;;13.66;100.00
41264;BME280;26998;48.714;9.414;2023-01-01T12:05:07;99473.28;;;14.04;100.00
41264;BME280;26998;48.714;9.414;2023-01-01T12:07:39;99429.66;;;14.28;100.00
41264;BME280;26998;48.714;9.414;2023-01-01T12:10:21;99402.97;;;14.53;100.00
41264;BME280;26998;48.714;9.414;2023-01-01T12:13:00;99392.59;;;14.64;100.00
41264;BME280;26998;48.714;9.414;2023-01-01T12:15:42;99366.13;;;14.67;100.00
41264;BME280;26998;48.714;9.414;2023-01-01T12:18:36;99366.28;;;14.72;100.00
41264;BME280;26998;48.714;9.414;2023-01-01T12:21:15;99375.97;;;14.87;100.00
41264;BME280;26998;48.714;9.414;2023-01-01T12:23:43;99353.22;;;14.89;100.00
41264;BME280;26998;48.714;9.414;2023-01-01T12:29:28;99336.94;;;15.09;100.00
41264;BME280;26998;48.714;9.414;2023-01-01T12:32:12;99332.31;;;14.85;100.00
41264;BME280;26998;48.714;9.414;2023-01-01T12:34:53;99335.78;;;14.98;100.00
41264;BME280;26998;48.714;9.414;2023-01-01T12:43:00;99311.19;;;15.27;100.00
41264;BME280;26998;48.714;9.414;2023-01-01T12:45:56;99271.59;;;15.27;100.00
41264;BME280;26998;48.714;9.414;2023-01-01T12:59:46;99230.41;;;15.77;100.00
41264;BME280;26998;48.714;9.414;2023-01-01T13:02:18;99227.69;;;15.77;100.00
41264;BME280;26998;48.714;9.414;2023-01-01T13:04:46;99225.59;;;15.79;100.00
41264;BME280;26998;48.714;9.414;2023-01-01T13:07:23;99217.66;;;15.84;100.00
41264;BME280;26998;48.714;9.414;2023-01-01T13:09:51;99233.22;;;15.82;100.00
41264;BME280;26998;48.714;9.414;2023-01-01T13:12:20;99232.91;;;15.72;100.00
41264;BME280;26998;48.714;9.414;2023-01-01T13:14:48;99231.78;;;15.29;100.00
41264;BME280;26998;48.714;9.414;2023-01-01T13:17:28;99246.00;;;15.43;100.00
41264;BME280;26998;48.714;9.414;2023-01-01T13:20:13;99260.16;;;15.57;100.00
41264;BME280;26998;48.714;9.414;2023-01-01T13:22:40;99261.34;;;15.42;100.00
41264;BME280;26998;48.714;9.414;2023-01-01T13:33:29;99205.75;;;15.23;100.00
41264;BME280;26998;48.714;9.414;2023-01-01T13:38:51;99199.59;;;15.41;100.00
41264;BME280;26998;48.714;9.414;2023-01-01T13:49:19;99227.09;;;15.24;100.00
41264;BME280;26998;48.714;9.414;2023-01-01T13:52:00;99214.25;;;15.20;100.00
41264;BME280;26998;48.714;9.414;2023-01-01T14:02:45;99236.44;;;14.52;100.00
41264;BME280;26998;48.714;9.414;2023-01-01T14:05:30;99250.34;;;14.29;100.00
41264;BME280;26998;48.714;9.414;2023-01-01T14:07:58;99268.56;;;14.27;100.00
41264;BME280;26998;48.714;9.414;2023-01-01T14:10:32;99256.97;;;14.33;100.00
41264;BME280;26998;48.714;9.414;2023-01-01T14:15:36;99255.91;;;14.41;100.00
41264;BME280;26998;48.714;9.414;2023-01-01T14:18:05;99261.69;;;14.38;100.00
41264;BME280;26998;48.714;9.414;2023-01-01T14:20:41;99259.84;;;14.31;100.00
41264;BME280;26998;48.714;9.414;2023-01-01T14:25:55;99263.03;;;14.15;100.00
41264;BME280;26998;48.714;9.414;2023-01-01T14:28:27;99263.88;;;14.09;100.00
41264;BME280;26998;48.714;9.414;2023-01-01T14:30:55;99260.16;;;14.03;100.00
41264;BME280;26998;48.714;9.414;2023-01-01T14:33:26;99258.31;;;13.97;100.00
41264;BME280;26998;48.714;9.414;2023-01-01T14:35:54;99256.69;;;13.90;100.00
41264;BME280;26998;48.714;9.414;2023-01-01T14:38:26;99247.78;;;13.82;100.00